sensor_id;sensor_type;location;lat;lon;timestamp;P1;durP1;ratioP1;P2;durP2;ratioP2
73452;SDS011;61687;56.232;43.854;2024-03-17T00:01:47;40.30;;;5.05;;
73452;SDS011;61687;56.232;43.854;2024-03-17T00:04:12;36.63;;;4.87;;
73452;SDS011;61687;56.232;43.854;2024-03-17T00:06:38;33.42;;;5.00;;
73452;SDS011;61687;56.232;43.854;2024-03-17T00:09:04;48.92;;;4.95;;
73452;SDS011;61687;56.232;43.854;2024-03-17T00:11:32;44.03;;;4.70;;
73452;SDS011;61687;56.232;43.854;2024-03-17T00:14:03;41.97;;;4.40;;
73452;SDS011;61687;56.232;43.854;2024-03-17T00:16:29;40.08;;;4.63;;
73452;SDS011;61687;56.232;43.854;2024-03-17T00:18:55;49.50;;;5.60;;
73452;SDS011;61687;56.232;43.854;2024-03-17T00:21:21;31.38;;;4.43;;
73452;SDS011;61687;56.232;43.854;2024-03-17T00:23:48;37.17;;;4.85;;
73452;SDS011;61687;56.232;43.854;2024-03-17T00:26:17;52.30;;;5.30;;
73452;SDS011;61687;56.232;43.854;2024-03-17T00:28:45;45.95;;;5.70;;
73452;SDS011;61687;56.232;43.854;2024-03-17T00:31:14;35.58;;;4.75;;
73452;SDS011;61687;56.232;43.854;2024-03-17T00:33:43;33.65;;;4.85;;
73452;SDS011;61687;56.232;43.854;2024-03-17T00:36:10;36.30;;;5.35;;
73452;SDS011;61687;56.232;43.854;2024-03-17T00:38:36;39.10;;;4.50;;
73452;SDS011;61687;56.232;43.854;2024-03-17T00:41:02;28.15;;;4.60;;
73452;SDS011;61687;56.232;43.854;2024-03-17T00:43:29;29.30;;;5.05;;
73452;SDS011;61687;56.232;43.854;2024-03-17T00:45:55;39.60;;;5.60;;
73452;SDS011;61687;56.232;43.854;2024-03-17T00:48:21;37.70;;;4.88;;
73452;SDS011;61687;56.232;43.854;2024-03-17T00:50:53;32.05;;;5.70;;
73452;SDS011;61687;56.232;43.854;2024-03-17T00:53:20;22.63;;;4.82;;
73452;SDS011;61687;56.232;43.854;2024-03-17T00:55:53;40.75;;;5.35;;
73452;SDS011;61687;56.232;43.854;2024-03-17T00:58:22;37.13;;;4.93;;
73452;SDS011;61687;56.232;43.854;2024-03-17T01:00:48;31.92;;;5.72;;
73452;SDS011;61687;56.232;43.854;2024-03-17T01:03:15;31.65;;;5.28;;
73452;SDS011;61687;56.232;43.854;2024-03-17T01:05:41;36.75;;;5.45;;
73452;SDS011;61687;56.232;43.854;2024-03-17T01:08:13;34.60;;;5.65;;
73452;SDS011;61687;56.232;43.854;2024-03-17T01:10:40;32.92;;;5.30;;
73452;SDS011;61687;56.232;43.854;2024-03-17T01:13:07;28.17;;;5.43;;
73452;SDS011;61687;56.232;43.854;2024-03-17T01:15:34;30.90;;;5.75;;
73452;SDS011;61687;56.232;43.854;2024-03-17T01:18:02;26.33;;;4.53;;
73452;SDS011;61687;56.232;43.854;2024-03-17T01:20:32;29.77;;;4.65;;
73452;SDS011;61687;56.232;43.854;2024-03-17T01:23:00;28.27;;;4.47;;
73452;SDS011;61687;56.232;43.854;2024-03-17T01:25:25;32.17;;;4.55;;
73452;SDS011;61687;56.232;43.854;2024-03-17T01:27:53;37.90;;;4.85;;
73452;SDS011;61687;56.232;43.854;2024-03-17T01:30:19;33.10;;;5.25;;
73452;SDS011;61687;56.232;43.854;2024-03-17T01:32:47;31.23;;;5.63;;
73452;SDS011;61687;56.232;43.854;2024-03-17T01:35:17;30.58;;;5.03;;
73452;SDS011;61687;56.232;43.854;2024-03-17T01:37:43;29.95;;;4.10;;
73452;SDS011;61687;56.232;43.854;2024-03-17T01:40:09;31.92;;;4.95;;
73452;SDS011;61687;56.232;43.854;2024-03-17T01:42:36;27.67;;;4.78;;
73452;SDS011;61687;56.232;43.854;2024-03-17T01:45:18;21.15;;;4.50;;
73452;SDS011;61687;56.232;43.854;2024-03-17T01:47:51;23.98;;;4.13;;
73452;SDS011;61687;56.232;43.854;2024-03-17T01:50:17;32.63;;;5.45;;
73452;SDS011;61687;56.232;43.854;2024-03-17T01:52:46;25.75;;;4.30;;
73452;SDS011;61687;56.232;43.854;2024-03-17T01:55:13;24.75;;;4.22;;
73452;SDS011;61687;56.232;43.854;2024-03-17T01:57:39;18.45;;;4.25;;
73452;SDS011;61687;56.232;43.854;2024-03-17T02:00:06;32.15;;;6.28;;
73452;SDS011;61687;56.232;43.854;2024-03-17T02:02:34;19.48;;;4.60;;
73452;SDS011;61687;56.232;43.854;2024-03-17T02:05:01;31.67;;;4.85;;
73452;SDS011;61687;56.232;43.854;2024-03-17T02:07:29;38.90;;;4.55;;
73452;SDS011;61687;56.232;43.854;2024-03-17T02:09:56;24.58;;;4.03;;
73452;SDS011;61687;56.232;43.854;2024-03-17T02:12:23;27.33;;;4.30;;
73452;SDS011;61687;56.232;43.854;2024-03-17T02:14:50;33.10;;;4.38;;
73452;SDS011;61687;56.232;43.854;2024-03-17T02:17:16;29.63;;;4.18;;
73452;SDS011;61687;56.232;43.854;2024-03-17T02:19:42;28.15;;;5.18;;
73452;SDS011;61687;56.232;43.854;2024-03-17T02:22:12;28.20;;;4.83;;
73452;SDS011;61687;56.232;43.854;2024-03-17T02:24:40;26.25;;;4.43;;
73452;SDS011;61687;56.232;43.854;2024-03-17T02:27:06;27.83;;;5.22;;
73452;SDS011;61687;56.232;43.854;2024-03-17T02:29:32;27.30;;;4.45;;
73452;SDS011;61687;56.232;43.854;2024-03-17T02:31:57;17.90;;;5.03;;
73452;SDS011;61687;56.232;43.854;2024-03-17T02:34:23;24.45;;;4.72;;
73452;SDS011;61687;56.232;43.854;2024-03-17T02:36:49;35.90;;;4.28;;
73452;SDS011;61687;56.232;43.854;2024-03-17T02:39:15;25.70;;;4.72;;
73452;SDS011;61687;56.232;43.854;2024-03-17T02:42:01;33.13;;;4.35;;
73452;SDS011;61687;56.232;43.854;2024-03-17T02:44:35;22.27;;;4.10;;
73452;SDS011;61687;56.232;43.854;2024-03-17T02:47:03;22.55;;;4.82;;
73452;SDS011;61687;56.232;43.854;2024-03-17T02:49:30;26.60;;;4.05;;
73452;SDS011;61687;56.232;43.854;2024-03-17T02:52:05;12.93;;;4.22;;
73452;SDS011;61687;56.232;43.854;2024-03-17T02:54:36;20.63;;;5.35;;
73452;SDS011;61687;56.232;43.854;2024-03-17T02:57:03;31.23;;;4.57;;
73452;SDS011;61687;56.232;43.854;2024-03-17T02:59:29;22.92;;;4.30;;
73452;SDS011;61687;56.232;43.854;2024-03-17T03:01:56;19.40;;;5.05;;
73452;SDS011;61687;56.232;43.854;2024-03-17T03:04:23;30.80;;;4.65;;
73452;SDS011;61687;56.232;43.854;2024-03-17T03:06:49;25.55;;;4.70;;
73452;SDS011;61687;56.232;43.854;2024-03-17T03:09:14;22.57;;;4.77;;
73452;SDS011;61687;56.232;43.854;2024-03-17T03:11:46;25.38;;;4.82;;
73452;SDS011;61687;56.232;43.854;2024-03-17T03:14:12;23.15;;;4.43;;
73452;SDS011;61687;56.232;43.854;2024-03-17T03:16:38;10.63;;;3.75;;
73452;SDS011;61687;56.232;43.854;2024-03-17T03:19:04;32.53;;;4.53;;
73452;SDS011;61687;56.232;43.854;2024-03-17T03:21:33;17.48;;;3.97;;
73452;SDS011;61687;56.232;43.854;2024-03-17T03:23:59;30.90;;;4.72;;
73452;SDS011;61687;56.232;43.854;2024-03-17T03:26:24;23.33;;;4.47;;
73452;SDS011;61687;56.232;43.854;2024-03-17T03:28:50;16.30;;;3.55;;
73452;SDS011;61687;56.232;43.854;2024-03-17T03:31:16;22.80;;;4.00;;
73452;SDS011;61687;56.232;43.854;2024-03-17T03:33:43;24.85;;;4.55;;
73452;SDS011;61687;56.232;43.854;2024-03-17T03:36:12;18.23;;;3.50;;
73452;SDS011;61687;56.232;43.854;2024-03-17T03:38:39;30.13;;;4.05;;
73452;SDS011;61687;56.232;43.854;2024-03-17T03:41:09;20.45;;;3.78;;
73452;SDS011;61687;56.232;43.854;2024-03-17T03:43:37;20.27;;;4.30;;
73452;SDS011;61687;56.232;43.854;2024-03-17T03:46:03;27.88;;;4.28;;
73452;SDS011;61687;56.232;43.854;2024-03-17T03:48:30;18.00;;;3.92;;
73452;SDS011;61687;56.232;43.854;2024-03-17T03:50:56;28.77;;;4.57;;
73452;SDS011;61687;56.232;43.854;2024-03-17T03:53:22;24.55;;;4.13;;
73452;SDS011;61687;56.232;43.854;2024-03-17T03:55:48;22.95;;;4.10;;
73452;SDS011;61687;56.232;43.854;2024-03-17T03:58:14;15.27;;;3.92;;
73452;SDS011;61687;56.232;43.854;2024-03-17T04:00:40;18.58;;;3.50;;
73452;SDS011;61687;56.232;43.854;2024-03-17T04:03:06;28.85;;;4.30;;
73452;SDS011;61687;56.232;43.854;2024-03-17T04:05:32;24.37;;;3.73;;
73452;SDS011;61687;56.232;43.854;2024-03-17T04:07:59;17.63;;;4.07;;
73452;SDS011;61687;56.232;43.854;2024-03-17T04:10:26;27.13;;;5.18;;
73452;SDS011;61687;56.232;43.854;2024-03-17T04:12:52;18.23;;;3.65;;
73452;SDS011;61687;56.232;43.854;2024-03-17T04:15:19;15.77;;;4.10;;
73452;SDS011;61687;56.232;43.854;2024-03-17T04:17:45;28.43;;;4.13;;
73452;SDS011;61687;56.232;43.854;2024-03-17T04:20:12;24.40;;;4.05;;
73452;SDS011;61687;56.232;43.854;2024-03-17T04:22:41;22.02;;;3.85;;
73452;SDS011;61687;56.232;43.854;2024-03-17T04:25:11;19.60;;;3.20;;
73452;SDS011;61687;56.232;43.854;2024-03-17T04:27:38;27.52;;;3.88;;
73452;SDS011;61687;56.232;43.854;2024-03-17T04:30:05;22.57;;;4.00;;
73452;SDS011;61687;56.232;43.854;2024-03-17T04:32:32;20.88;;;4.55;;
73452;SDS011;61687;56.232;43.854;2024-03-17T04:34:59;29.25;;;4.78;;
73452;SDS011;61687;56.232;43.854;2024-03-17T04:37:25;27.85;;;4.13;;
73452;SDS011;61687;56.232;43.854;2024-03-17T04:39:51;18.87;;;3.30;;
73452;SDS011;61687;56.232;43.854;2024-03-17T04:42:17;26.83;;;4.40;;
73452;SDS011;61687;56.232;43.854;2024-03-17T04:44:45;23.70;;;4.72;;
73452;SDS011;61687;56.232;43.854;2024-03-17T04:47:12;20.45;;;4.63;;
73452;SDS011;61687;56.232;43.854;2024-03-17T04:49:39;23.42;;;4.95;;
73452;SDS011;61687;56.232;43.854;2024-03-17T04:52:06;24.05;;;4.40;;
73452;SDS011;61687;56.232;43.854;2024-03-17T04:54:33;32.90;;;4.43;;
73452;SDS011;61687;56.232;43.854;2024-03-17T04:56:59;21.80;;;4.28;;
73452;SDS011;61687;56.232;43.854;2024-03-17T04:59:26;21.98;;;4.35;;
73452;SDS011;61687;56.232;43.854;2024-03-17T05:01:52;27.90;;;4.53;;
73452;SDS011;61687;56.232;43.854;2024-03-17T05:04:18;17.45;;;4.57;;
73452;SDS011;61687;56.232;43.854;2024-03-17T05:06:44;25.17;;;3.95;;
73452;SDS011;61687;56.232;43.854;2024-03-17T05:09:18;27.50;;;4.38;;
73452;SDS011;61687;56.232;43.854;2024-03-17T05:11:44;26.38;;;3.95;;
73452;SDS011;61687;56.232;43.854;2024-03-17T05:14:11;32.40;;;4.38;;
73452;SDS011;61687;56.232;43.854;2024-03-17T05:16:37;19.63;;;4.28;;
73452;SDS011;61687;56.232;43.854;2024-03-17T05:19:03;21.70;;;3.97;;
73452;SDS011;61687;56.232;43.854;2024-03-17T05:21:29;28.13;;;4.45;;
73452;SDS011;61687;56.232;43.854;2024-03-17T05:23:56;19.33;;;3.75;;
73452;SDS011;61687;56.232;43.854;2024-03-17T05:26:25;11.13;;;4.20;;
73452;SDS011;61687;56.232;43.854;2024-03-17T05:28:51;23.13;;;5.30;;
73452;SDS011;61687;56.232;43.854;2024-03-17T05:31:17;14.68;;;4.18;;
73452;SDS011;61687;56.232;43.854;2024-03-17T05:33:44;27.27;;;6.20;;
73452;SDS011;61687;56.232;43.854;2024-03-17T05:36:10;21.50;;;5.17;;
73452;SDS011;61687;56.232;43.854;2024-03-17T05:38:36;14.43;;;5.20;;
73452;SDS011;61687;56.232;43.854;2024-03-17T05:41:03;19.38;;;4.65;;
73452;SDS011;61687;56.232;43.854;2024-03-17T05:43:31;19.10;;;4.15;;
73452;SDS011;61687;56.232;43.854;2024-03-17T05:46:05;22.60;;;4.97;;
73452;SDS011;61687;56.232;43.854;2024-03-17T05:48:32;23.67;;;4.80;;
73452;SDS011;61687;56.232;43.854;2024-03-17T05:51:02;30.33;;;5.15;;
73452;SDS011;61687;56.232;43.854;2024-03-17T05:53:28;20.83;;;4.95;;
73452;SDS011;61687;56.232;43.854;2024-03-17T05:55:54;26.30;;;4.38;;
73452;SDS011;61687;56.232;43.854;2024-03-17T05:58:20;26.15;;;4.50;;
73452;SDS011;61687;56.232;43.854;2024-03-17T06:00:46;28.98;;;5.82;;
73452;SDS011;61687;56.232;43.854;2024-03-17T06:03:12;26.73;;;4.65;;
73452;SDS011;61687;56.232;43.854;2024-03-17T06:05:39;17.07;;;4.87;;
73452;SDS011;61687;56.232;43.854;2024-03-17T06:08:08;20.08;;;4.82;;
73452;SDS011;61687;56.232;43.854;2024-03-17T06:10:35;22.63;;;5.03;;
73452;SDS011;61687;56.232;43.854;2024-03-17T06:13:02;26.58;;;5.22;;
73452;SDS011;61687;56.232;43.854;2024-03-17T06:15:28;22.92;;;5.50;;
73452;SDS011;61687;56.232;43.854;2024-03-17T06:17:54;22.45;;;4.55;;
73452;SDS011;61687;56.232;43.854;2024-03-17T06:20:21;19.27;;;5.35;;
73452;SDS011;61687;56.232;43.854;2024-03-17T06:22:49;23.75;;;5.75;;
73452;SDS011;61687;56.232;43.854;2024-03-17T06:25:15;21.30;;;4.70;;
73452;SDS011;61687;56.232;43.854;2024-03-17T06:27:42;21.75;;;4.30;;
73452;SDS011;61687;56.232;43.854;2024-03-17T06:30:14;32.22;;;4.95;;
73452;SDS011;61687;56.232;43.854;2024-03-17T06:32:40;23.67;;;4.88;;
73452;SDS011;61687;56.232;43.854;2024-03-17T06:35:07;22.25;;;4.82;;
73452;SDS011;61687;56.232;43.854;2024-03-17T06:37:34;19.00;;;4.07;;
73452;SDS011;61687;56.232;43.854;2024-03-17T06:40:01;19.88;;;4.82;;
73452;SDS011;61687;56.232;43.854;2024-03-17T06:42:29;26.98;;;5.03;;
73452;SDS011;61687;56.232;43.854;2024-03-17T06:44:55;24.98;;;5.88;;
73452;SDS011;61687;56.232;43.854;2024-03-17T06:47:21;28.00;;;5.28;;
73452;SDS011;61687;56.232;43.854;2024-03-17T06:49:47;23.30;;;5.60;;
73452;SDS011;61687;56.232;43.854;2024-03-17T06:52:13;24.80;;;4.90;;
73452;SDS011;61687;56.232;43.854;2024-03-17T06:54:38;26.50;;;4.37;;
73452;SDS011;61687;56.232;43.854;2024-03-17T06:57:05;34.78;;;5.15;;
73452;SDS011;61687;56.232;43.854;2024-03-17T06:59:34;31.52;;;5.07;;
73452;SDS011;61687;56.232;43.854;2024-03-17T07:02:00;27.00;;;5.25;;
73452;SDS011;61687;56.232;43.854;2024-03-17T07:04:26;21.85;;;4.07;;
73452;SDS011;61687;56.232;43.854;2024-03-17T07:06:52;25.17;;;4.60;;
73452;SDS011;61687;56.232;43.854;2024-03-17T07:09:18;24.20;;;4.70;;
73452;SDS011;61687;56.232;43.854;2024-03-17T07:11:44;17.15;;;4.93;;
73452;SDS011;61687;56.232;43.854;2024-03-17T07:14:10;34.13;;;4.90;;
73452;SDS011;61687;56.232;43.854;2024-03-17T07:16:36;19.48;;;5.47;;
73452;SDS011;61687;56.232;43.854;2024-03-17T07:19:02;17.77;;;4.43;;
73452;SDS011;61687;56.232;43.854;2024-03-17T07:21:28;22.25;;;5.20;;
73452;SDS011;61687;56.232;43.854;2024-03-17T07:23:54;21.60;;;5.03;;
73452;SDS011;61687;56.232;43.854;2024-03-17T07:26:20;25.42;;;5.05;;
73452;SDS011;61687;56.232;43.854;2024-03-17T07:28:46;27.53;;;4.97;;
73452;SDS011;61687;56.232;43.854;2024-03-17T07:31:12;21.63;;;4.97;;
73452;SDS011;61687;56.232;43.854;2024-03-17T07:33:37;26.17;;;4.78;;
73452;SDS011;61687;56.232;43.854;2024-03-17T07:36:03;22.60;;;5.73;;
73452;SDS011;61687;56.232;43.854;2024-03-17T07:38:30;20.75;;;4.97;;
73452;SDS011;61687;56.232;43.854;2024-03-17T07:41:00;27.02;;;5.70;;
73452;SDS011;61687;56.232;43.854;2024-03-17T07:43:28;30.83;;;5.47;;
73452;SDS011;61687;56.232;43.854;2024-03-17T07:45:58;21.35;;;5.78;;
73452;SDS011;61687;56.232;43.854;2024-03-17T07:48:24;21.98;;;4.47;;
73452;SDS011;61687;56.232;43.854;2024-03-17T07:50:57;25.67;;;5.40;;
73452;SDS011;61687;56.232;43.854;2024-03-17T07:53:24;27.25;;;5.10;;
73452;SDS011;61687;56.232;43.854;2024-03-17T07:55:57;24.17;;;5.57;;
73452;SDS011;61687;56.232;43.854;2024-03-17T07:58:27;33.80;;;5.37;;
73452;SDS011;61687;56.232;43.854;2024-03-17T08:00:56;25.67;;;6.63;;
73452;SDS011;61687;56.232;43.854;2024-03-17T08:03:25;34.88;;;6.00;;
73452;SDS011;61687;56.232;43.854;2024-03-17T08:05:52;33.92;;;5.85;;
73452;SDS011;61687;56.232;43.854;2024-03-17T08:08:18;41.95;;;6.93;;
73452;SDS011;61687;56.232;43.854;2024-03-17T08:10:45;33.30;;;5.37;;
73452;SDS011;61687;56.232;43.854;2024-03-17T08:13:16;26.27;;;6.57;;
73452;SDS011;61687;56.232;43.854;2024-03-17T08:15:43;33.92;;;6.32;;
73452;SDS011;61687;56.232;43.854;2024-03-17T08:18:14;37.33;;;5.00;;
73452;SDS011;61687;56.232;43.854;2024-03-17T08:20:41;53.63;;;7.35;;
73452;SDS011;61687;56.232;43.854;2024-03-17T08:23:09;29.30;;;5.80;;
73452;SDS011;61687;56.232;43.854;2024-03-17T08:25:36;39.67;;;5.93;;
73452;SDS011;61687;56.232;43.854;2024-03-17T08:28:02;26.90;;;7.00;;
73452;SDS011;61687;56.232;43.854;2024-03-17T08:30:28;31.27;;;5.70;;
73452;SDS011;61687;56.232;43.854;2024-03-17T08:32:56;37.53;;;5.97;;
73452;SDS011;61687;56.232;43.854;2024-03-17T08:35:22;42.63;;;5.60;;
73452;SDS011;61687;56.232;43.854;2024-03-17T08:37:48;40.28;;;5.95;;
73452;SDS011;61687;56.232;43.854;2024-03-17T08:40:16;45.30;;;5.95;;
73452;SDS011;61687;56.232;43.854;2024-03-17T08:42:43;32.42;;;4.95;;
73452;SDS011;61687;56.232;43.854;2024-03-17T08:45:11;30.03;;;5.17;;
73452;SDS011;61687;56.232;43.854;2024-03-17T08:47:41;39.35;;;4.95;;
73452;SDS011;61687;56.232;43.854;2024-03-17T08:50:07;33.72;;;4.50;;
73452;SDS011;61687;56.232;43.854;2024-03-17T08:52:34;31.98;;;5.93;;
73452;SDS011;61687;56.232;43.854;2024-03-17T08:55:00;49.80;;;6.15;;
73452;SDS011;61687;56.232;43.854;2024-03-17T08:57:35;40.33;;;5.97;;
73452;SDS011;61687;56.232;43.854;2024-03-17T09:00:01;51.00;;;5.63;;
73452;SDS011;61687;56.232;43.854;2024-03-17T09:02:30;29.08;;;5.35;;
73452;SDS011;61687;56.232;43.854;2024-03-17T09:04:55;37.40;;;5.50;;
73452;SDS011;61687;56.232;43.854;2024-03-17T09:07:21;44.15;;;6.07;;
73452;SDS011;61687;56.232;43.854;2024-03-17T09:09:47;34.60;;;4.88;;
73452;SDS011;61687;56.232;43.854;2024-03-17T09:12:13;40.60;;;5.65;;
73452;SDS011;61687;56.232;43.854;2024-03-17T09:14:39;40.17;;;5.65;;
73452;SDS011;61687;56.232;43.854;2024-03-17T09:17:06;36.05;;;5.40;;
73452;SDS011;61687;56.232;43.854;2024-03-17T09:19:32;30.02;;;5.13;;
73452;SDS011;61687;56.232;43.854;2024-03-17T09:21:58;43.10;;;4.93;;
73452;SDS011;61687;56.232;43.854;2024-03-17T09:24:24;40.93;;;5.63;;
73452;SDS011;61687;56.232;43.854;2024-03-17T09:26:51;38.88;;;4.95;;
73452;SDS011;61687;56.232;43.854;2024-03-17T09:29:18;37.05;;;6.63;;
73452;SDS011;61687;56.232;43.854;2024-03-17T09:31:44;42.28;;;6.22;;
73452;SDS011;61687;56.232;43.854;2024-03-17T09:34:10;39.58;;;5.88;;
73452;SDS011;61687;56.232;43.854;2024-03-17T09:36:36;36.07;;;4.83;;
73452;SDS011;61687;56.232;43.854;2024-03-17T09:39:02;43.83;;;5.75;;
73452;SDS011;61687;56.232;43.854;2024-03-17T09:41:29;42.90;;;5.80;;
73452;SDS011;61687;56.232;43.854;2024-03-17T09:43:56;41.73;;;5.63;;
73452;SDS011;61687;56.232;43.854;2024-03-17T09:46:23;33.95;;;5.13;;
73452;SDS011;61687;56.232;43.854;2024-03-17T09:48:51;39.92;;;6.55;;
73452;SDS011;61687;56.232;43.854;2024-03-17T09:51:21;43.72;;;5.90;;
73452;SDS011;61687;56.232;43.854;2024-03-17T09:53:49;47.40;;;5.90;;
73452;SDS011;61687;56.232;43.854;2024-03-17T09:56:16;34.53;;;5.17;;
73452;SDS011;61687;56.232;43.854;2024-03-17T09:58:49;40.53;;;5.78;;
73452;SDS011;61687;56.232;43.854;2024-03-17T10:01:17;48.15;;;6.43;;
73452;SDS011;61687;56.232;43.854;2024-03-17T10:06:26;35.25;;;6.20;;
73452;SDS011;61687;56.232;43.854;2024-03-17T10:08:53;40.50;;;5.50;;
73452;SDS011;61687;56.232;43.854;2024-03-17T10:11:21;34.67;;;5.75;;
73452;SDS011;61687;56.232;43.854;2024-03-17T10:13:59;42.70;;;6.18;;
73452;SDS011;61687;56.232;43.854;2024-03-17T10:16:26;34.45;;;6.05;;
73452;SDS011;61687;56.232;43.854;2024-03-17T10:19:10;40.30;;;6.45;;
73452;SDS011;61687;56.232;43.854;2024-03-17T10:21:42;43.80;;;8.20;;
73452;SDS011;61687;56.232;43.854;2024-03-17T10:26:43;44.92;;;5.35;;
73452;SDS011;61687;56.232;43.854;2024-03-17T10:29:22;26.15;;;4.20;;
73452;SDS011;61687;56.232;43.854;2024-03-17T10:32:12;40.72;;;5.80;;
73452;SDS011;61687;56.232;43.854;2024-03-17T10:34:44;47.65;;;5.88;;
73452;SDS011;61687;56.232;43.854;2024-03-17T10:37:11;41.05;;;5.97;;
73452;SDS011;61687;56.232;43.854;2024-03-17T10:39:40;47.08;;;6.15;;
73452;SDS011;61687;56.232;43.854;2024-03-17T10:42:08;41.67;;;6.20;;
73452;SDS011;61687;56.232;43.854;2024-03-17T10:44:35;38.63;;;6.13;;
73452;SDS011;61687;56.232;43.854;2024-03-17T10:47:02;36.70;;;5.90;;
73452;SDS011;61687;56.232;43.854;2024-03-17T10:49:35;46.28;;;6.18;;
73452;SDS011;61687;56.232;43.854;2024-03-17T10:52:07;37.42;;;6.20;;
73452;SDS011;61687;56.232;43.854;2024-03-17T10:54:39;37.72;;;5.72;;
73452;SDS011;61687;56.232;43.854;2024-03-17T10:59:41;44.10;;;5.73;;
73452;SDS011;61687;56.232;43.854;2024-03-17T11:02:33;36.75;;;5.40;;
73452;SDS011;61687;56.232;43.854;2024-03-17T11:05:00;33.75;;;5.65;;
73452;SDS011;61687;56.232;43.854;2024-03-17T11:07:31;45.28;;;5.82;;
73452;SDS011;61687;56.232;43.854;2024-03-17T11:10:03;30.02;;;4.85;;
73452;SDS011;61687;56.232;43.854;2024-03-17T11:20:21;37.40;;;6.30;;
73452;SDS011;61687;56.232;43.854;2024-03-17T11:22:50;44.28;;;6.00;;
73452;SDS011;61687;56.232;43.854;2024-03-17T11:27:53;32.55;;;5.65;;
73452;SDS011;61687;56.232;43.854;2024-03-17T11:38:55;29.05;;;5.30;;
73452;SDS011;61687;56.232;43.854;2024-03-17T11:41:41;35.53;;;6.20;;
73452;SDS011;61687;56.232;43.854;2024-03-17T11:44:13;31.40;;;6.85;;
73452;SDS011;61687;56.232;43.854;2024-03-17T11:49:26;36.92;;;5.40;;
73452;SDS011;61687;56.232;43.854;2024-03-17T11:51:54;33.00;;;5.70;;
73452;SDS011;61687;56.232;43.854;2024-03-17T11:54:25;36.00;;;5.18;;
73452;SDS011;61687;56.232;43.854;2024-03-17T11:56:56;37.38;;;6.35;;
73452;SDS011;61687;56.232;43.854;2024-03-17T11:59:26;37.22;;;5.90;;
73452;SDS011;61687;56.232;43.854;2024-03-17T12:01:52;39.00;;;6.33;;
73452;SDS011;61687;56.232;43.854;2024-03-17T12:04:19;31.35;;;4.88;;
73452;SDS011;61687;56.232;43.854;2024-03-17T12:06:47;36.15;;;5.32;;
73452;SDS011;61687;56.232;43.854;2024-03-17T12:09:27;19.55;;;5.18;;
73452;SDS011;61687;56.232;43.854;2024-03-17T12:12:02;24.50;;;4.88;;
73452;SDS011;61687;56.232;43.854;2024-03-17T12:14:37;37.20;;;5.13;;
73452;SDS011;61687;56.232;43.854;2024-03-17T12:17:06;24.50;;;6.05;;
73452;SDS011;61687;56.232;43.854;2024-03-17T12:19:33;24.20;;;5.18;;
73452;SDS011;61687;56.232;43.854;2024-03-17T12:22:01;39.95;;;5.97;;
73452;SDS011;61687;56.232;43.854;2024-03-17T12:24:29;33.03;;;5.13;;
73452;SDS011;61687;56.232;43.854;2024-03-17T12:27:00;24.00;;;5.17;;
73452;SDS011;61687;56.232;43.854;2024-03-17T12:29:32;20.20;;;4.85;;
73452;SDS011;61687;56.232;43.854;2024-03-17T12:32:05;26.75;;;4.50;;
73452;SDS011;61687;56.232;43.854;2024-03-17T12:34:42;19.38;;;5.05;;
73452;SDS011;61687;56.232;43.854;2024-03-17T12:37:16;25.55;;;5.32;;
73452;SDS011;61687;56.232;43.854;2024-03-17T12:39:43;26.38;;;5.28;;
73452;SDS011;61687;56.232;43.854;2024-03-17T12:42:10;26.10;;;6.72;;
73452;SDS011;61687;56.232;43.854;2024-03-17T12:44:37;30.63;;;7.32;;
73452;SDS011;61687;56.232;43.854;2024-03-17T12:47:07;29.13;;;6.22;;
73452;SDS011;61687;56.232;43.854;2024-03-17T12:49:44;25.20;;;6.10;;
73452;SDS011;61687;56.232;43.854;2024-03-17T12:55:15;24.00;;;6.40;;
73452;SDS011;61687;56.232;43.854;2024-03-17T13:01:08;21.90;;;5.43;;
73452;SDS011;61687;56.232;43.854;2024-03-17T13:03:37;26.75;;;6.07;;
73452;SDS011;61687;56.232;43.854;2024-03-17T13:06:05;24.50;;;5.68;;
73452;SDS011;61687;56.232;43.854;2024-03-17T13:08:35;14.57;;;5.22;;
73452;SDS011;61687;56.232;43.854;2024-03-17T13:11:02;22.38;;;5.28;;
73452;SDS011;61687;56.232;43.854;2024-03-17T13:13:29;24.30;;;6.15;;
73452;SDS011;61687;56.232;43.854;2024-03-17T13:15:56;32.40;;;5.63;;
73452;SDS011;61687;56.232;43.854;2024-03-17T13:18:22;27.58;;;6.25;;
73452;SDS011;61687;56.232;43.854;2024-03-17T13:20:48;19.80;;;5.43;;
73452;SDS011;61687;56.232;43.854;2024-03-17T13:23:19;19.55;;;5.82;;
73452;SDS011;61687;56.232;43.854;2024-03-17T13:25:47;24.60;;;6.38;;
73452;SDS011;61687;56.232;43.854;2024-03-17T13:28:13;22.25;;;5.88;;
73452;SDS011;61687;56.232;43.854;2024-03-17T13:30:40;24.10;;;5.80;;
73452;SDS011;61687;56.232;43.854;2024-03-17T13:33:07;27.73;;;5.60;;
73452;SDS011;61687;56.232;43.854;2024-03-17T13:35:38;35.90;;;5.68;;
73452;SDS011;61687;56.232;43.854;2024-03-17T13:38:06;25.98;;;5.43;;
73452;SDS011;61687;56.232;43.854;2024-03-17T13:40:33;24.85;;;6.50;;
73452;SDS011;61687;56.232;43.854;2024-03-17T13:43:01;32.30;;;6.35;;
73452;SDS011;61687;56.232;43.854;2024-03-17T13:45:28;37.78;;;6.07;;
73452;SDS011;61687;56.232;43.854;2024-03-17T13:48:02;18.88;;;4.95;;
73452;SDS011;61687;56.232;43.854;2024-03-17T13:50:32;21.27;;;5.30;;
73452;SDS011;61687;56.232;43.854;2024-03-17T13:52:59;25.55;;;6.00;;
73452;SDS011;61687;56.232;43.854;2024-03-17T13:55:28;24.08;;;4.95;;
73452;SDS011;61687;56.232;43.854;2024-03-17T13:57:55;17.05;;;5.22;;
73452;SDS011;61687;56.232;43.854;2024-03-17T14:00:24;17.30;;;5.93;;
73452;SDS011;61687;56.232;43.854;2024-03-17T14:02:52;16.33;;;5.07;;
73452;SDS011;61687;56.232;43.854;2024-03-17T14:05:22;17.88;;;4.70;;
73452;SDS011;61687;56.232;43.854;2024-03-17T14:07:48;20.05;;;4.40;;
73452;SDS011;61687;56.232;43.854;2024-03-17T14:10:17;17.33;;;4.88;;
73452;SDS011;61687;56.232;43.854;2024-03-17T14:12:44;28.77;;;5.35;;
73452;SDS011;61687;56.232;43.854;2024-03-17T14:15:11;30.80;;;5.07;;
73452;SDS011;61687;56.232;43.854;2024-03-17T14:17:39;22.00;;;5.05;;
73452;SDS011;61687;56.232;43.854;2024-03-17T14:20:06;27.60;;;4.65;;
73452;SDS011;61687;56.232;43.854;2024-03-17T14:22:37;18.65;;;6.20;;
73452;SDS011;61687;56.232;43.854;2024-03-17T14:25:06;18.70;;;5.07;;
73452;SDS011;61687;56.232;43.854;2024-03-17T14:27:35;13.98;;;5.10;;
73452;SDS011;61687;56.232;43.854;2024-03-17T14:30:02;24.45;;;5.03;;
73452;SDS011;61687;56.232;43.854;2024-03-17T14:32:32;23.58;;;5.70;;
73452;SDS011;61687;56.232;43.854;2024-03-17T14:34:58;18.35;;;5.82;;
73452;SDS011;61687;56.232;43.854;2024-03-17T14:37:25;22.90;;;4.78;;
73452;SDS011;61687;56.232;43.854;2024-03-17T14:39:52;18.83;;;5.55;;
73452;SDS011;61687;56.232;43.854;2024-03-17T14:42:21;27.25;;;5.68;;
73452;SDS011;61687;56.232;43.854;2024-03-17T14:44:47;25.10;;;6.03;;
73452;SDS011;61687;56.232;43.854;2024-03-17T14:47:13;21.30;;;5.20;;
73452;SDS011;61687;56.232;43.854;2024-03-17T14:49:39;34.22;;;5.60;;
73452;SDS011;61687;56.232;43.854;2024-03-17T14:52:07;21.40;;;5.10;;
73452;SDS011;61687;56.232;43.854;2024-03-17T14:54:35;12.60;;;4.53;;
73452;SDS011;61687;56.232;43.854;2024-03-17T14:57:01;24.38;;;6.75;;
73452;SDS011;61687;56.232;43.854;2024-03-17T14:59:27;27.33;;;5.05;;
73452;SDS011;61687;56.232;43.854;2024-03-17T15:01:55;16.25;;;5.13;;